Aviation Digital Data Service (ADDS)

Output produced by METARs form (1825 UTC 16 August 2018)
found at http://www.aviationweather.gov/adds/metars/
 
GVAC 161800Z 05005KT 350V070 9999 SCT014 29/21 Q1015 NOSIG
TAF GVAC 161700Z 1618/1724 03010KT 9999 SCT014 
     TEMPO 1700/1706 VRB03KT
       
GVBA 161800Z 36008KT 9999 SCT015 SCT100 28/21 Q1015 NOSIG
TAF GVBA 161100Z 1612/1718 03010KT 9999 BKN015 
     TEMPO 1701/1707 VRB02KT
       
GVSV 161800Z 07009KT 9999 FEW022 29/19 Q1016 NOSIG
TAF GVSV 161700Z 1618/1724 06012KT 9999 SCT022